sensor_id;sensor_type;location;lat;lon;timestamp;pressure;altitude;pressure_sealevel;temperature;humidity
69737;BME280;64476;55.004;73.342;2023-01-13T00:02:55;102147.19;;;-8.37;51.94
69737;BME280;64476;55.004;73.342;2023-01-13T00:06:02;102211.03;;;-8.05;51.84
69737;BME280;64476;55.004;73.342;2023-01-13T00:09:13;102151.38;;;-8.40;51.89
69737;BME280;64476;55.004;73.342;2023-01-13T00:12:15;102181.06;;;-8.32;51.45
69737;BME280;64476;55.004;73.342;2023-01-13T00:15:27;102190.53;;;-8.18;51.73
69737;BME280;64476;55.004;73.342;2023-01-13T00:18:33;102214.41;;;-8.06;51.66
69737;BME280;64476;55.004;73.342;2023-01-13T00:21:42;102216.03;;;-8.09;51.60
69737;BME280;64476;55.004;73.342;2023-01-13T00:24:44;102164.94;;;-8.38;51.78
69737;BME280;64476;55.004;73.342;2023-01-13T00:27:51;102132.47;;;-8.61;51.74
69737;BME280;64476;55.004;73.342;2023-01-13T00:34:11;102197.09;;;-8.31;51.67
69737;BME280;64476;55.004;73.342;2023-01-13T00:37:13;102156.19;;;-8.57;51.25
69737;BME280;64476;55.004;73.342;2023-01-13T00:40:16;102221.59;;;-8.32;51.40
69737;BME280;64476;55.004;73.342;2023-01-13T00:43:23;102203.72;;;-8.41;51.21
69737;BME280;64476;55.004;73.342;2023-01-13T00:46:38;102016.94;;;-9.54;51.35
69737;BME280;64476;55.004;73.342;2023-01-13T00:49:39;102195.03;;;-8.55;51.86
69737;BME280;64476;55.004;73.342;2023-01-13T00:52:51;102166.97;;;-8.66;51.71
69737;BME280;64476;55.004;73.342;2023-01-13T00:59:17;102221.50;;;-8.38;51.80
69737;BME280;64476;55.004;73.342;2023-01-13T01:02:19;102230.84;;;-8.34;51.77
69737;BME280;64476;55.004;73.342;2023-01-13T01:05:20;102097.06;;;-9.08;51.51
69737;BME280;64476;55.004;73.342;2023-01-13T01:08:22;102224.19;;;-8.27;51.25
69737;BME280;64476;55.004;73.342;2023-01-13T01:11:28;102228.47;;;-8.23;51.13
69737;BME280;64476;55.004;73.342;2023-01-13T01:14:30;102209.72;;;-8.33;51.46
69737;BME280;64476;55.004;73.342;2023-01-13T01:17:32;102216.47;;;-8.33;51.46
69737;BME280;64476;55.004;73.342;2023-01-13T01:20:36;102253.94;;;-8.15;51.36
69737;BME280;64476;55.004;73.342;2023-01-13T01:23:38;102191.75;;;-8.49;51.16
69737;BME280;64476;55.004;73.342;2023-01-13T01:26:45;102242.91;;;-8.19;51.14
69737;BME280;64476;55.004;73.342;2023-01-13T01:29:47;102207.19;;;-8.33;51.41
69737;BME280;64476;55.004;73.342;2023-01-13T01:32:48;102235.38;;;-8.14;51.15
69737;BME280;64476;55.004;73.342;2023-01-13T01:36:00;102191.91;;;-8.40;51.17
69737;BME280;64476;55.004;73.342;2023-01-13T01:39:03;102232.72;;;-8.22;51.25
69737;BME280;64476;55.004;73.342;2023-01-13T01:42:14;102251.44;;;-8.14;50.98
69737;BME280;64476;55.004;73.342;2023-01-13T01:45:35;102261.69;;;-8.08;51.15
69737;BME280;64476;55.004;73.342;2023-01-13T01:48:44;102146.34;;;-8.87;51.20
69737;BME280;64476;55.004;73.342;2023-01-13T01:58:27;102301.50;;;-8.00;51.43
69737;BME280;64476;55.004;73.342;2023-01-13T02:01:32;102250.38;;;-8.27;51.44
69737;BME280;64476;55.004;73.342;2023-01-13T02:04:38;102285.41;;;-8.04;51.32
69737;BME280;64476;55.004;73.342;2023-01-13T02:07:42;102236.72;;;-8.38;51.60
69737;BME280;64476;55.004;73.342;2023-01-13T02:10:49;102301.59;;;-7.96;51.53
69737;BME280;64476;55.004;73.342;2023-01-13T02:13:55;102208.66;;;-8.48;50.99
69737;BME280;64476;55.004;73.342;2023-01-13T02:20:37;102324.72;;;-7.78;51.50
69737;BME280;64476;55.004;73.342;2023-01-13T02:32:26;102267.31;;;-8.24;51.18
69737;BME280;64476;55.004;73.342;2023-01-13T02:35:46;102348.38;;;-7.77;51.44
69737;BME280;64476;55.004;73.342;2023-01-13T02:39:04;102341.56;;;-7.81;51.22
69737;BME280;64476;55.004;73.342;2023-01-13T02:49:56;102304.03;;;-8.00;51.16
69737;BME280;64476;55.004;73.342;2023-01-13T02:56:35;102291.44;;;-7.97;52.21
69737;BME280;64476;55.004;73.342;2023-01-13T02:59:38;102167.81;;;-8.68;51.81
69737;BME280;64476;55.004;73.342;2023-01-13T03:02:40;102370.00;;;-7.47;51.71
69737;BME280;64476;55.004;73.342;2023-01-13T03:05:52;102354.66;;;-7.55;51.64
69737;BME280;64476;55.004;73.342;2023-01-13T03:16:26;102375.22;;;-7.38;52.01
69737;BME280;64476;55.004;73.342;2023-01-13T03:19:43;102375.28;;;-7.35;52.20
69737;BME280;64476;55.004;73.342;2023-01-13T03:22:58;102361.72;;;-7.37;51.74
69737;BME280;64476;55.004;73.342;2023-01-13T03:26:14;102314.00;;;-7.60;52.00
69737;BME280;64476;55.004;73.342;2023-01-13T03:29:36;102338.81;;;-7.42;51.49
69737;BME280;64476;55.004;73.342;2023-01-13T03:32:53;102226.03;;;-8.18;51.38
69737;BME280;64476;55.004;73.342;2023-01-13T03:36:01;102378.09;;;-7.17;51.92
69737;BME280;64476;55.004;73.342;2023-01-13T03:39:09;102359.34;;;-7.26;51.50
69737;BME280;64476;55.004;73.342;2023-01-13T03:42:17;102379.69;;;-7.22;51.60
69737;BME280;64476;55.004;73.342;2023-01-13T03:45:20;102325.09;;;-7.53;51.73
69737;BME280;64476;55.004;73.342;2023-01-13T03:48:25;102379.69;;;-7.23;51.98
69737;BME280;64476;55.004;73.342;2023-01-13T03:51:29;102269.53;;;-7.92;51.43
69737;BME280;64476;55.004;73.342;2023-01-13T03:54:46;102374.44;;;-7.36;51.62
69737;BME280;64476;55.004;73.342;2023-01-13T04:01:23;102342.63;;;-7.67;51.47
69737;BME280;64476;55.004;73.342;2023-01-13T04:08:21;102127.34;;;-9.12;51.76
69737;BME280;64476;55.004;73.342;2023-01-13T04:12:32;102425.09;;;-7.42;51.04
69737;BME280;64476;55.004;73.342;2023-01-13T04:15:54;102367.75;;;-7.81;50.96
69737;BME280;64476;55.004;73.342;2023-01-13T04:18:57;102428.31;;;-7.50;51.59
69737;BME280;64476;55.004;73.342;2023-01-13T04:22:11;102404.28;;;-7.71;51.30
69737;BME280;64476;55.004;73.342;2023-01-13T04:25:16;102383.88;;;-7.77;51.44
69737;BME280;64476;55.004;73.342;2023-01-13T04:28:18;102378.78;;;-7.80;51.29
69737;BME280;64476;55.004;73.342;2023-01-13T04:31:20;102374.63;;;-7.76;50.97
69737;BME280;64476;55.004;73.342;2023-01-13T04:34:21;102393.31;;;-7.70;51.16
69737;BME280;64476;55.004;73.342;2023-01-13T04:37:23;102337.78;;;-8.05;51.14
69737;BME280;64476;55.004;73.342;2023-01-13T04:40:39;102263.41;;;-8.55;51.18
69737;BME280;64476;55.004;73.342;2023-01-13T04:43:47;102361.94;;;-7.75;50.39
69737;BME280;64476;55.004;73.342;2023-01-13T04:46:54;102442.25;;;-7.25;50.69
69737;BME280;64476;55.004;73.342;2023-01-13T04:49:56;102307.34;;;-8.05;50.32
69737;BME280;64476;55.004;73.342;2023-01-13T04:53:02;102446.59;;;-7.21;50.59
69737;BME280;64476;55.004;73.342;2023-01-13T04:56:09;102382.56;;;-7.55;50.42
69737;BME280;64476;55.004;73.342;2023-01-13T04:59:11;102405.53;;;-7.47;50.79
69737;BME280;64476;55.004;73.342;2023-01-13T05:02:24;102445.69;;;-7.22;50.35
69737;BME280;64476;55.004;73.342;2023-01-13T05:05:27;102434.69;;;-7.22;50.54
69737;BME280;64476;55.004;73.342;2023-01-13T05:08:33;102385.25;;;-7.46;50.50
69737;BME280;64476;55.004;73.342;2023-01-13T05:11:36;102347.88;;;-7.56;49.86
69737;BME280;64476;55.004;73.342;2023-01-13T05:15:06;102417.94;;;-7.13;49.95
69737;BME280;64476;55.004;73.342;2023-01-13T05:18:44;102423.91;;;-7.09;50.29
69737;BME280;64476;55.004;73.342;2023-01-13T05:21:56;102436.81;;;-6.95;50.30
69737;BME280;64476;55.004;73.342;2023-01-13T05:25:15;102331.03;;;-7.53;50.40
69737;BME280;64476;55.004;73.342;2023-01-13T05:28:59;102423.34;;;-6.91;50.05
69737;BME280;64476;55.004;73.342;2023-01-13T05:32:09;102420.84;;;-6.87;50.29
69737;BME280;64476;55.004;73.342;2023-01-13T05:35:11;102432.03;;;-6.75;49.78
69737;BME280;64476;55.004;73.342;2023-01-13T05:38:18;102427.75;;;-6.78;49.69
69737;BME280;64476;55.004;73.342;2023-01-13T05:41:21;102420.16;;;-6.76;49.67
69737;BME280;64476;55.004;73.342;2023-01-13T05:44:41;102422.75;;;-6.72;49.77
69737;BME280;64476;55.004;73.342;2023-01-13T05:47:43;102438.16;;;-6.60;49.39
69737;BME280;64476;55.004;73.342;2023-01-13T05:50:53;102337.41;;;-7.23;48.71
69737;BME280;64476;55.004;73.342;2023-01-13T05:54:01;102328.91;;;-7.25;49.21
69737;BME280;64476;55.004;73.342;2023-01-13T05:57:48;102439.69;;;-6.71;49.55
69737;BME280;64476;55.004;73.342;2023-01-13T06:01:07;102415.69;;;-6.93;49.37
69737;BME280;64476;55.004;73.342;2023-01-13T06:04:08;102438.81;;;-6.74;49.41
69737;BME280;64476;55.004;73.342;2023-01-13T06:07:21;102414.13;;;-6.85;49.10
69737;BME280;64476;55.004;73.342;2023-01-13T06:10:23;102403.72;;;-7.01;48.92
69737;BME280;64476;55.004;73.342;2023-01-13T06:13:26;102463.56;;;-6.60;48.88
69737;BME280;64476;55.004;73.342;2023-01-13T06:16:32;102449.25;;;-6.54;49.42
69737;BME280;64476;55.004;73.342;2023-01-13T06:19:44;102388.00;;;-6.74;49.37
69737;BME280;64476;55.004;73.342;2023-01-13T06:22:48;102458.94;;;-6.26;48.80
69737;BME280;64476;55.004;73.342;2023-01-13T06:26:03;102458.19;;;-6.17;48.58
69737;BME280;64476;55.004;73.342;2023-01-13T06:29:09;102329.34;;;-6.93;48.44
69737;BME280;64476;55.004;73.342;2023-01-13T06:32:27;102450.66;;;-6.08;47.78
69737;BME280;64476;55.004;73.342;2023-01-13T06:35:32;102431.09;;;-6.17;48.53
69737;BME280;64476;55.004;73.342;2023-01-13T06:38:38;102407.00;;;-6.48;48.08
69737;BME280;64476;55.004;73.342;2023-01-13T06:42:14;102378.19;;;-6.47;48.60
69737;BME280;64476;55.004;73.342;2023-01-13T06:45:52;102393.72;;;-6.24;48.68
69737;BME280;64476;55.004;73.342;2023-01-13T06:51:21;102336.09;;;-6.23;48.14
69737;BME280;64476;55.004;73.342;2023-01-13T06:54:33;102439.28;;;-5.60;47.71
69737;BME280;64476;55.004;73.342;2023-01-13T07:00:51;102411.06;;;-5.85;48.02
69737;BME280;64476;55.004;73.342;2023-01-13T07:03:58;102455.47;;;-5.53;48.04
69737;BME280;64476;55.004;73.342;2023-01-13T07:07:02;102314.97;;;-6.18;47.83
69737;BME280;64476;55.004;73.342;2023-01-13T07:10:38;102449.03;;;-5.15;47.38
69737;BME280;64476;55.004;73.342;2023-01-13T07:13:40;102446.50;;;-5.10;47.31
69737;BME280;64476;55.004;73.342;2023-01-13T07:17:07;102435.44;;;-5.14;46.22
69737;BME280;64476;55.004;73.342;2023-01-13T07:20:09;102449.78;;;-5.23;46.70
69737;BME280;64476;55.004;73.342;2023-01-13T07:23:16;102455.66;;;-5.33;46.77
69737;BME280;64476;55.004;73.342;2023-01-13T07:26:18;102460.03;;;-5.16;47.31
69737;BME280;64476;55.004;73.342;2023-01-13T07:32:33;102187.97;;;-6.92;47.22
69737;BME280;64476;55.004;73.342;2023-01-13T07:35:35;102445.50;;;-5.27;46.66
69737;BME280;64476;55.004;73.342;2023-01-13T07:38:37;102109.59;;;-7.41;46.68
69737;BME280;64476;55.004;73.342;2023-01-13T07:41:41;102461.38;;;-5.56;46.63
69737;BME280;64476;55.004;73.342;2023-01-13T07:44:56;102394.59;;;-6.19;46.99
69737;BME280;64476;55.004;73.342;2023-01-13T07:47:58;102445.66;;;-6.03;46.93
69737;BME280;64476;55.004;73.342;2023-01-13T07:51:42;102460.88;;;-6.05;47.17
69737;BME280;64476;55.004;73.342;2023-01-13T07:54:44;102386.53;;;-6.56;47.14
69737;BME280;64476;55.004;73.342;2023-01-13T07:57:56;102328.03;;;-7.28;47.14
69737;BME280;64476;55.004;73.342;2023-01-13T08:00:59;102351.81;;;-7.20;47.58
69737;BME280;64476;55.004;73.342;2023-01-13T08:04:00;102457.38;;;-6.80;48.10
69737;BME280;64476;55.004;73.342;2023-01-13T08:07:03;102452.06;;;-6.94;47.50
69737;BME280;64476;55.004;73.342;2023-01-13T08:10:08;102452.75;;;-7.06;48.12
69737;BME280;64476;55.004;73.342;2023-01-13T08:13:16;102416.69;;;-7.38;47.91
69737;BME280;64476;55.004;73.342;2023-01-13T08:16:23;102402.09;;;-7.51;48.45
69737;BME280;64476;55.004;73.342;2023-01-13T08:19:35;102442.09;;;-7.36;48.11
69737;BME280;64476;55.004;73.342;2023-01-13T08:22:36;102482.25;;;-7.11;48.50
69737;BME280;64476;55.004;73.342;2023-01-13T08:25:38;102495.84;;;-7.09;48.28
69737;BME280;64476;55.004;73.342;2023-01-13T08:28:40;102477.22;;;-7.09;48.38
69737;BME280;64476;55.004;73.342;2023-01-13T08:31:47;102433.72;;;-7.32;48.25
69737;BME280;64476;55.004;73.342;2023-01-13T08:34:48;102427.69;;;-7.39;48.22
69737;BME280;64476;55.004;73.342;2023-01-13T08:37:51;102490.94;;;-6.99;47.93
69737;BME280;64476;55.004;73.342;2023-01-13T08:41:31;102456.81;;;-7.15;48.62
69737;BME280;64476;55.004;73.342;2023-01-13T08:44:57;102434.69;;;-7.22;48.17
69737;BME280;64476;55.004;73.342;2023-01-13T08:47:58;102366.59;;;-7.49;48.13
69737;BME280;64476;55.004;73.342;2023-01-13T08:51:06;102449.53;;;-6.92;47.99
69737;BME280;64476;55.004;73.342;2023-01-13T08:54:07;102471.81;;;-6.74;47.64
69737;BME280;64476;55.004;73.342;2023-01-13T08:57:09;102465.00;;;-6.78;47.55
69737;BME280;64476;55.004;73.342;2023-01-13T09:00:11;102486.38;;;-6.64;47.90
69737;BME280;64476;55.004;73.342;2023-01-13T09:03:14;102508.41;;;-6.63;47.45
69737;BME280;64476;55.004;73.342;2023-01-13T09:06:21;102495.53;;;-6.74;47.92
69737;BME280;64476;55.004;73.342;2023-01-13T09:09:22;102485.25;;;-6.82;47.72
69737;BME280;64476;55.004;73.342;2023-01-13T09:12:25;102477.59;;;-6.86;47.50
69737;BME280;64476;55.004;73.342;2023-01-13T09:16:14;102506.69;;;-6.64;48.17
69737;BME280;64476;55.004;73.342;2023-01-13T09:19:55;102471.59;;;-6.91;48.07
69737;BME280;64476;55.004;73.342;2023-01-13T09:23:04;102526.97;;;-6.67;47.80
69737;BME280;64476;55.004;73.342;2023-01-13T09:26:08;102508.97;;;-6.83;48.58
69737;BME280;64476;55.004;73.342;2023-01-13T09:29:16;102530.19;;;-6.77;48.75
69737;BME280;64476;55.004;73.342;2023-01-13T09:32:18;102518.38;;;-6.75;48.61
69737;BME280;64476;55.004;73.342;2023-01-13T09:35:20;102521.16;;;-6.62;48.15
69737;BME280;64476;55.004;73.342;2023-01-13T09:38:21;102456.41;;;-6.88;47.82
69737;BME280;64476;55.004;73.342;2023-01-13T09:41:25;102547.94;;;-6.23;48.43
69737;BME280;64476;55.004;73.342;2023-01-13T09:45:39;102548.09;;;-6.14;47.76
69737;BME280;64476;55.004;73.342;2023-01-13T09:48:45;102520.63;;;-6.39;48.36
69737;BME280;64476;55.004;73.342;2023-01-13T09:59:09;102452.03;;;-6.97;48.38
69737;BME280;64476;55.004;73.342;2023-01-13T10:09:49;102407.31;;;-7.42;48.93
69737;BME280;64476;55.004;73.342;2023-01-13T10:12:57;102262.19;;;-8.27;48.73
69737;BME280;64476;55.004;73.342;2023-01-13T10:19:47;102554.25;;;-6.56;48.44
69737;BME280;64476;55.004;73.342;2023-01-13T10:33:20;102482.84;;;-7.27;48.43
69737;BME280;64476;55.004;73.342;2023-01-13T10:36:28;102520.41;;;-7.08;48.83
69737;BME280;64476;55.004;73.342;2023-01-13T10:39:41;102496.13;;;-7.43;49.16
69737;BME280;64476;55.004;73.342;2023-01-13T10:43:03;102485.56;;;-7.65;49.48
69737;BME280;64476;55.004;73.342;2023-01-13T11:00:29;102493.09;;;-8.13;49.85
69737;BME280;64476;55.004;73.342;2023-01-13T11:04:29;102563.03;;;-7.81;49.96
69737;BME280;64476;55.004;73.342;2023-01-13T11:07:45;102525.38;;;-8.03;50.07
69737;BME280;64476;55.004;73.342;2023-01-13T11:10:53;102477.31;;;-8.41;50.33
69737;BME280;64476;55.004;73.342;2023-01-13T11:13:57;102540.53;;;-8.06;50.00
69737;BME280;64476;55.004;73.342;2023-01-13T11:17:40;102554.94;;;-8.05;50.03
69737;BME280;64476;55.004;73.342;2023-01-13T11:20:46;102537.72;;;-8.18;50.09
69737;BME280;64476;55.004;73.342;2023-01-13T11:27:46;102492.28;;;-8.52;50.67
69737;BME280;64476;55.004;73.342;2023-01-13T11:31:17;102531.25;;;-8.46;50.76
69737;BME280;64476;55.004;73.342;2023-01-13T11:34:29;102555.53;;;-8.17;50.76
69737;BME280;64476;55.004;73.342;2023-01-13T11:38:12;102465.28;;;-8.87;50.88
69737;BME280;64476;55.004;73.342;2023-01-13T11:44:38;102561.84;;;-8.36;50.96
69737;BME280;64476;55.004;73.342;2023-01-13T11:47:52;102504.28;;;-8.81;50.73
69737;BME280;64476;55.004;73.342;2023-01-13T12:05:20;102576.91;;;-8.43;50.93
69737;BME280;64476;55.004;73.342;2023-01-13T12:08:59;102569.88;;;-8.55;51.12
69737;BME280;64476;55.004;73.342;2023-01-13T12:16:01;102587.06;;;-8.78;51.65
69737;BME280;64476;55.004;73.342;2023-01-13T12:19:23;102561.66;;;-9.14;52.03
69737;BME280;64476;55.004;73.342;2023-01-13T12:22:37;102572.69;;;-9.12;51.47
69737;BME280;64476;55.004;73.342;2023-01-13T12:25:53;102576.97;;;-9.10;52.16
69737;BME280;64476;55.004;73.342;2023-01-13T12:29:02;102589.50;;;-9.14;52.02
69737;BME280;64476;55.004;73.342;2023-01-13T12:32:16;102563.03;;;-9.27;51.76
69737;BME280;64476;55.004;73.342;2023-01-13T12:35:32;102559.06;;;-9.49;53.08
69737;BME280;64476;55.004;73.342;2023-01-13T12:38:36;102584.47;;;-9.44;53.60
69737;BME280;64476;55.004;73.342;2023-01-13T12:41:49;102587.75;;;-9.49;52.36
69737;BME280;64476;55.004;73.342;2023-01-13T12:58:15;102498.63;;;-9.71;52.47
69737;BME280;64476;55.004;73.342;2023-01-13T13:01:18;102577.47;;;-9.23;53.14
69737;BME280;64476;55.004;73.342;2023-01-13T13:08:02;102524.13;;;-9.64;52.66
69737;BME280;64476;55.004;73.342;2023-01-13T13:18:31;102577.53;;;-9.52;53.56
69737;BME280;64476;55.004;73.342;2023-01-13T13:25:59;102573.94;;;-9.28;53.41
69737;BME280;64476;55.004;73.342;2023-01-13T13:36:01;102574.09;;;-8.90;52.45
69737;BME280;64476;55.004;73.342;2023-01-13T13:46:44;102500.06;;;-9.16;52.56
69737;BME280;64476;55.004;73.342;2023-01-13T13:49:51;102558.44;;;-8.76;52.44
69737;BME280;64476;55.004;73.342;2023-01-13T13:53:02;102509.81;;;-8.97;52.20
69737;BME280;64476;55.004;73.342;2023-01-13T13:56:23;102547.50;;;-8.73;52.67
69737;BME280;64476;55.004;73.342;2023-01-13T13:59:27;102554.56;;;-8.61;52.29
69737;BME280;64476;55.004;73.342;2023-01-13T14:02:35;102520.56;;;-8.69;52.80
69737;BME280;64476;55.004;73.342;2023-01-13T14:06:03;102476.81;;;-9.02;52.79
69737;BME280;64476;55.004;73.342;2023-01-13T14:09:15;102546.56;;;-8.77;53.18
69737;BME280;64476;55.004;73.342;2023-01-13T14:12:20;102524.88;;;-9.02;52.87
69737;BME280;64476;55.004;73.342;2023-01-13T14:15:35;102540.94;;;-9.01;53.80
69737;BME280;64476;55.004;73.342;2023-01-13T14:18:45;102478.19;;;-9.48;54.34
69737;BME280;64476;55.004;73.342;2023-01-13T14:21:48;102440.59;;;-9.67;53.80
69737;BME280;64476;55.004;73.342;2023-01-13T14:28:42;102525.81;;;-8.98;54.36
69737;BME280;64476;55.004;73.342;2023-01-13T14:31:45;102527.47;;;-8.98;54.38
69737;BME280;64476;55.004;73.342;2023-01-13T14:34:57;102509.69;;;-9.02;54.96
69737;BME280;64476;55.004;73.342;2023-01-13T14:38:15;102443.94;;;-9.35;54.88
69737;BME280;64476;55.004;73.342;2023-01-13T14:41:25;102501.19;;;-9.04;55.06
69737;BME280;64476;55.004;73.342;2023-01-13T14:44:31;102448.75;;;-9.45;55.84
69737;BME280;64476;55.004;73.342;2023-01-13T14:47:37;102417.13;;;-9.61;55.60
69737;BME280;64476;55.004;73.342;2023-01-13T14:50:45;102502.03;;;-9.05;56.23
69737;BME280;64476;55.004;73.342;2023-01-13T14:53:47;102482.00;;;-8.95;55.41
69737;BME280;64476;55.004;73.342;2023-01-13T15:00:27;102477.50;;;-8.71;55.39
69737;BME280;64476;55.004;73.342;2023-01-13T15:03:39;102427.38;;;-8.86;55.51
69737;BME280;64476;55.004;73.342;2023-01-13T15:06:45;102466.84;;;-8.56;55.21
69737;BME280;64476;55.004;73.342;2023-01-13T15:09:52;102403.81;;;-8.83;55.68
69737;BME280;64476;55.004;73.342;2023-01-13T15:13:37;102479.22;;;-8.29;55.51
69737;BME280;64476;55.004;73.342;2023-01-13T15:16:50;102422.03;;;-8.59;55.00
69737;BME280;64476;55.004;73.342;2023-01-13T15:20:01;102338.34;;;-9.06;55.13
69737;BME280;64476;55.004;73.342;2023-01-13T15:23:14;102483.06;;;-8.07;55.18
69737;BME280;64476;55.004;73.342;2023-01-13T15:29:29;102469.66;;;-8.02;54.93
69737;BME280;64476;55.004;73.342;2023-01-13T15:32:30;102485.19;;;-7.85;54.99
69737;BME280;64476;55.004;73.342;2023-01-13T15:35:43;102426.22;;;-8.18;55.23
69737;BME280;64476;55.004;73.342;2023-01-13T15:38:47;102422.00;;;-8.18;55.30
69737;BME280;64476;55.004;73.342;2023-01-13T15:41:49;102462.97;;;-7.96;55.78
69737;BME280;64476;55.004;73.342;2023-01-13T15:45:13;102455.44;;;-7.95;55.32
69737;BME280;64476;55.004;73.342;2023-01-13T15:48:43;102410.25;;;-8.14;55.09
69737;BME280;64476;55.004;73.342;2023-01-13T15:51:46;102438.81;;;-7.79;55.22
69737;BME280;64476;55.004;73.342;2023-01-13T15:54:49;102429.78;;;-7.65;55.14
69737;BME280;64476;55.004;73.342;2023-01-13T15:57:51;102439.34;;;-7.48;55.06
69737;BME280;64476;55.004;73.342;2023-01-13T16:00:52;102440.38;;;-7.39;54.92
69737;BME280;64476;55.004;73.342;2023-01-13T16:03:54;102450.69;;;-7.28;54.53
69737;BME280;64476;55.004;73.342;2023-01-13T16:07:00;102445.44;;;-7.37;55.04
69737;BME280;64476;55.004;73.342;2023-01-13T16:10:05;102452.38;;;-7.28;54.53
69737;BME280;64476;55.004;73.342;2023-01-13T16:13:18;102397.84;;;-7.52;54.57
69737;BME280;64476;55.004;73.342;2023-01-13T16:19:54;102435.59;;;-7.19;54.43
69737;BME280;64476;55.004;73.342;2023-01-13T16:22:59;102434.75;;;-7.21;54.37
69737;BME280;64476;55.004;73.342;2023-01-13T16:26:17;102365.69;;;-7.53;54.52
69737;BME280;64476;55.004;73.342;2023-01-13T16:29:24;102427.06;;;-7.24;54.45
69737;BME280;64476;55.004;73.342;2023-01-13T16:32:26;102405.88;;;-7.27;53.89
69737;BME280;64476;55.004;73.342;2023-01-13T16:35:28;102377.59;;;-7.50;54.12
69737;BME280;64476;55.004;73.342;2023-01-13T16:38:42;102416.88;;;-7.27;54.87
69737;BME280;64476;55.004;73.342;2023-01-13T16:41:53;102379.09;;;-7.62;54.46
69737;BME280;64476;55.004;73.342;2023-01-13T16:44:56;102289.41;;;-8.17;54.78
69737;BME280;64476;55.004;73.342;2023-01-13T16:47:59;102394.50;;;-7.49;54.55
69737;BME280;64476;55.004;73.342;2023-01-13T16:51:00;102371.34;;;-7.69;54.86
69737;BME280;64476;55.004;73.342;2023-01-13T16:54:02;102403.81;;;-7.48;55.59
69737;BME280;64476;55.004;73.342;2023-01-13T16:57:04;102408.06;;;-7.47;55.13
69737;BME280;64476;55.004;73.342;2023-01-13T17:00:18;102364.56;;;-7.70;55.16
69737;BME280;64476;55.004;73.342;2023-01-13T17:03:24;102363.72;;;-7.71;55.53
69737;BME280;64476;55.004;73.342;2023-01-13T17:06:36;102396.44;;;-7.36;55.42
69737;BME280;64476;55.004;73.342;2023-01-13T17:09:39;102379.41;;;-7.42;55.04
69737;BME280;64476;55.004;73.342;2023-01-13T17:12:42;102380.50;;;-7.26;55.23
69737;BME280;64476;55.004;73.342;2023-01-13T17:15:44;102329.56;;;-7.40;54.87
69737;BME280;64476;55.004;73.342;2023-01-13T17:18:46;102361.97;;;-7.20;55.45
69737;BME280;64476;55.004;73.342;2023-01-13T17:21:57;102365.38;;;-7.20;55.19
69737;BME280;64476;55.004;73.342;2023-01-13T17:24:59;102374.69;;;-7.19;55.35
69737;BME280;64476;55.004;73.342;2023-01-13T17:28:01;102374.75;;;-7.14;54.95
69737;BME280;64476;55.004;73.342;2023-01-13T17:31:14;102356.75;;;-7.30;55.37
69737;BME280;64476;55.004;73.342;2023-01-13T17:34:16;102353.31;;;-7.33;55.59
69737;BME280;64476;55.004;73.342;2023-01-13T17:37:19;102267.84;;;-7.93;55.62
69737;BME280;64476;55.004;73.342;2023-01-13T17:40:21;102358.31;;;-7.38;55.25
69737;BME280;64476;55.004;73.342;2023-01-13T17:43:22;102330.19;;;-7.51;55.82
69737;BME280;64476;55.004;73.342;2023-01-13T17:46:24;102358.28;;;-7.41;55.45
69737;BME280;64476;55.004;73.342;2023-01-13T17:53:14;102286.59;;;-7.82;56.09
69737;BME280;64476;55.004;73.342;2023-01-13T17:56:48;102328.19;;;-7.71;56.31
69737;BME280;64476;55.004;73.342;2023-01-13T17:59:50;102327.41;;;-7.68;56.29
69737;BME280;64476;55.004;73.342;2023-01-13T18:02:51;102322.41;;;-7.62;56.57
69737;BME280;64476;55.004;73.342;2023-01-13T18:05:54;102261.00;;;-7.97;56.49
69737;BME280;64476;55.004;73.342;2023-01-13T18:09:06;102092.91;;;-9.04;56.79
69737;BME280;64476;55.004;73.342;2023-01-13T18:12:08;102308.66;;;-7.78;56.62
69737;BME280;64476;55.004;73.342;2023-01-13T18:15:44;102308.72;;;-7.73;56.79
69737;BME280;64476;55.004;73.342;2023-01-13T18:21:52;102239.66;;;-8.10;56.42
69737;BME280;64476;55.004;73.342;2023-01-13T18:25:12;102299.41;;;-7.74;56.63
69737;BME280;64476;55.004;73.342;2023-01-13T18:28:31;102286.66;;;-7.78;56.64
69737;BME280;64476;55.004;73.342;2023-01-13T18:31:38;102268.66;;;-7.94;56.79
69737;BME280;64476;55.004;73.342;2023-01-13T18:34:43;102255.91;;;-7.99;57.16
69737;BME280;64476;55.004;73.342;2023-01-13T18:37:44;102257.69;;;-7.93;57.08
69737;BME280;64476;55.004;73.342;2023-01-13T18:40:49;102241.50;;;-8.02;56.84
69737;BME280;64476;55.004;73.342;2023-01-13T18:44:25;102270.59;;;-7.80;56.75
69737;BME280;64476;55.004;73.342;2023-01-13T18:48:01;102220.44;;;-7.97;56.77
69737;BME280;64476;55.004;73.342;2023-01-13T18:51:03;102222.19;;;-7.95;57.21
69737;BME280;64476;55.004;73.342;2023-01-13T18:54:04;102245.19;;;-7.81;56.50
69737;BME280;64476;55.004;73.342;2023-01-13T18:57:13;102195.16;;;-7.93;56.78
69737;BME280;64476;55.004;73.342;2023-01-13T19:00:25;102255.72;;;-7.58;56.58
69737;BME280;64476;55.004;73.342;2023-01-13T19:03:27;102272.78;;;-7.45;56.77
69737;BME280;64476;55.004;73.342;2023-01-13T19:06:30;102261.94;;;-7.35;56.24
69737;BME280;64476;55.004;73.342;2023-01-13T19:09:38;102263.00;;;-7.20;55.91
69737;BME280;64476;55.004;73.342;2023-01-13T19:12:40;102252.13;;;-7.10;55.79
69737;BME280;64476;55.004;73.342;2023-01-13T19:19:16;102254.63;;;-7.13;55.82
69737;BME280;64476;55.004;73.342;2023-01-13T19:25:29;102231.47;;;-7.36;55.66
69737;BME280;64476;55.004;73.342;2023-01-13T19:28:31;102194.72;;;-7.64;56.26
69737;BME280;64476;55.004;73.342;2023-01-13T19:31:33;102217.78;;;-7.47;56.08
69737;BME280;64476;55.004;73.342;2023-01-13T19:34:41;102147.78;;;-7.95;56.23
69737;BME280;64476;55.004;73.342;2023-01-13T19:37:59;102088.97;;;-8.34;56.08
69737;BME280;64476;55.004;73.342;2023-01-13T19:41:02;102213.44;;;-7.56;56.36